sensor_id;sensor_type;location;lat;lon;timestamp;temperature;humidity
48328;DHT22;34136;51.022;7.082;2023-04-01T00:01:04;10.70;1.00
48328;DHT22;34136;51.022;7.082;2023-04-01T00:03:51;10.70;1.00
48328;DHT22;34136;51.022;7.082;2023-04-01T00:06:37;10.70;1.00
48328;DHT22;34136;51.022;7.082;2023-04-01T00:09:23;10.70;1.00
48328;DHT22;34136;51.022;7.082;2023-04-01T00:12:09;10.80;1.00
48328;DHT22;34136;51.022;7.082;2023-04-01T00:14:55;10.80;1.00
48328;DHT22;34136;51.022;7.082;2023-04-01T00:17:41;10.80;1.00
48328;DHT22;34136;51.022;7.082;2023-04-01T00:20:28;10.80;1.00
48328;DHT22;34136;51.022;7.082;2023-04-01T00:23:16;10.80;1.00
48328;DHT22;34136;51.022;7.082;2023-04-01T00:26:02;10.80;1.00
48328;DHT22;34136;51.022;7.082;2023-04-01T00:28:49;10.80;1.00
48328;DHT22;34136;51.022;7.082;2023-04-01T00:31:35;10.80;1.00
48328;DHT22;34136;51.022;7.082;2023-04-01T00:34:22;10.80;1.00
48328;DHT22;34136;51.022;7.082;2023-04-01T00:37:08;10.80;1.00
48328;DHT22;34136;51.022;7.082;2023-04-01T00:39:55;10.90;1.00
48328;DHT22;34136;51.022;7.082;2023-04-01T00:42:41;10.80;1.00
48328;DHT22;34136;51.022;7.082;2023-04-01T00:45:30;10.80;1.00
48328;DHT22;34136;51.022;7.082;2023-04-01T00:48:19;10.90;1.00
48328;DHT22;34136;51.022;7.082;2023-04-01T00:51:11;10.80;1.00
48328;DHT22;34136;51.022;7.082;2023-04-01T00:54:00;10.90;1.00
48328;DHT22;34136;51.022;7.082;2023-04-01T00:56:56;10.90;1.00
48328;DHT22;34136;51.022;7.082;2023-04-01T00:59:46;10.90;1.00
48328;DHT22;34136;51.022;7.082;2023-04-01T01:02:33;10.90;1.00
48328;DHT22;34136;51.022;7.082;2023-04-01T01:05:27;10.90;1.00
48328;DHT22;34136;51.022;7.082;2023-04-01T01:08:27;10.90;1.00
48328;DHT22;34136;51.022;7.082;2023-04-01T01:11:23;10.90;1.00
48328;DHT22;34136;51.022;7.082;2023-04-01T01:14:28;10.90;1.00
48328;DHT22;34136;51.022;7.082;2023-04-01T01:38:17;10.70;1.00
48328;DHT22;34136;51.022;7.082;2023-04-01T01:41:12;10.80;1.00
48328;DHT22;34136;51.022;7.082;2023-04-01T01:44:02;10.70;1.00
48328;DHT22;34136;51.022;7.082;2023-04-01T01:46:49;10.70;1.00
48328;DHT22;34136;51.022;7.082;2023-04-01T01:49:36;10.80;1.00
48328;DHT22;34136;51.022;7.082;2023-04-01T01:52:24;10.70;1.00
48328;DHT22;34136;51.022;7.082;2023-04-01T02:01:06;10.80;1.00
48328;DHT22;34136;51.022;7.082;2023-04-01T02:03:54;10.80;1.00
48328;DHT22;34136;51.022;7.082;2023-04-01T02:06:47;10.70;1.00
48328;DHT22;34136;51.022;7.082;2023-04-01T02:09:35;10.70;1.00
48328;DHT22;34136;51.022;7.082;2023-04-01T02:12:23;10.70;1.00
48328;DHT22;34136;51.022;7.082;2023-04-01T02:15:13;10.70;1.00
48328;DHT22;34136;51.022;7.082;2023-04-01T02:18:00;10.60;1.00
48328;DHT22;34136;51.022;7.082;2023-04-01T02:21:03;10.60;1.00
48328;DHT22;34136;51.022;7.082;2023-04-01T02:23:52;10.40;1.00
48328;DHT22;34136;51.022;7.082;2023-04-01T02:26:39;10.50;1.00
48328;DHT22;34136;51.022;7.082;2023-04-01T02:29:26;10.40;1.00
48328;DHT22;34136;51.022;7.082;2023-04-01T02:32:13;10.40;1.00
48328;DHT22;34136;51.022;7.082;2023-04-01T02:35:01;10.40;1.00
48328;DHT22;34136;51.022;7.082;2023-04-01T02:37:49;10.40;1.00
48328;DHT22;34136;51.022;7.082;2023-04-01T02:40:58;10.30;1.00
48328;DHT22;34136;51.022;7.082;2023-04-01T02:43:45;10.20;1.00
48328;DHT22;34136;51.022;7.082;2023-04-01T02:46:31;10.10;1.00
48328;DHT22;34136;51.022;7.082;2023-04-01T02:49:17;10.10;1.00
48328;DHT22;34136;51.022;7.082;2023-04-01T02:52:03;10.10;1.00
48328;DHT22;34136;51.022;7.082;2023-04-01T02:54:50;10.10;1.00
48328;DHT22;34136;51.022;7.082;2023-04-01T02:57:36;10.10;1.00
48328;DHT22;34136;51.022;7.082;2023-04-01T03:00:23;10.20;1.00
48328;DHT22;34136;51.022;7.082;2023-04-01T03:03:09;10.20;1.00
48328;DHT22;34136;51.022;7.082;2023-04-01T03:05:56;10.20;1.00
48328;DHT22;34136;51.022;7.082;2023-04-01T03:08:43;10.10;1.00
48328;DHT22;34136;51.022;7.082;2023-04-01T03:11:29;10.10;1.00
48328;DHT22;34136;51.022;7.082;2023-04-01T03:14:15;10.10;1.00
48328;DHT22;34136;51.022;7.082;2023-04-01T03:17:02;10.10;1.00
48328;DHT22;34136;51.022;7.082;2023-04-01T03:19:48;10.00;1.00
48328;DHT22;34136;51.022;7.082;2023-04-01T03:22:35;9.90;1.00
48328;DHT22;34136;51.022;7.082;2023-04-01T03:25:21;9.90;1.00
48328;DHT22;34136;51.022;7.082;2023-04-01T03:28:08;10.00;1.00
48328;DHT22;34136;51.022;7.082;2023-04-01T03:30:54;10.00;1.00
48328;DHT22;34136;51.022;7.082;2023-04-01T03:33:40;9.90;1.00
48328;DHT22;34136;51.022;7.082;2023-04-01T03:36:27;9.80;1.00
48328;DHT22;34136;51.022;7.082;2023-04-01T03:39:13;9.90;1.00
48328;DHT22;34136;51.022;7.082;2023-04-01T03:42:01;9.80;1.00
48328;DHT22;34136;51.022;7.082;2023-04-01T03:44:47;9.90;1.00
48328;DHT22;34136;51.022;7.082;2023-04-01T03:47:33;9.90;1.00
48328;DHT22;34136;51.022;7.082;2023-04-01T03:50:20;9.90;1.00
48328;DHT22;34136;51.022;7.082;2023-04-01T03:53:06;9.90;1.00
48328;DHT22;34136;51.022;7.082;2023-04-01T03:55:53;9.90;1.00
48328;DHT22;34136;51.022;7.082;2023-04-01T03:58:40;9.80;1.00
48328;DHT22;34136;51.022;7.082;2023-04-01T04:01:27;9.80;1.00
48328;DHT22;34136;51.022;7.082;2023-04-01T04:04:15;9.90;1.00
48328;DHT22;34136;51.022;7.082;2023-04-01T04:07:02;10.00;1.00
48328;DHT22;34136;51.022;7.082;2023-04-01T04:09:55;9.90;1.00
48328;DHT22;34136;51.022;7.082;2023-04-01T04:12:41;10.00;1.00
48328;DHT22;34136;51.022;7.082;2023-04-01T04:15:27;10.00;1.00
48328;DHT22;34136;51.022;7.082;2023-04-01T04:18:14;10.00;1.00
48328;DHT22;34136;51.022;7.082;2023-04-01T04:21:00;10.10;1.00
48328;DHT22;34136;51.022;7.082;2023-04-01T04:23:47;10.10;1.00
48328;DHT22;34136;51.022;7.082;2023-04-01T04:26:35;10.10;1.00
48328;DHT22;34136;51.022;7.082;2023-04-01T04:29:22;10.10;1.00
48328;DHT22;34136;51.022;7.082;2023-04-01T04:32:08;10.10;1.00
48328;DHT22;34136;51.022;7.082;2023-04-01T04:34:56;10.10;1.00
48328;DHT22;34136;51.022;7.082;2023-04-01T04:37:42;10.10;1.00
48328;DHT22;34136;51.022;7.082;2023-04-01T04:40:28;10.20;1.00
48328;DHT22;34136;51.022;7.082;2023-04-01T04:43:16;10.20;1.00
48328;DHT22;34136;51.022;7.082;2023-04-01T04:46:08;10.20;1.00
48328;DHT22;34136;51.022;7.082;2023-04-01T04:48:54;10.10;1.00
48328;DHT22;34136;51.022;7.082;2023-04-01T04:51:41;10.10;1.00
48328;DHT22;34136;51.022;7.082;2023-04-01T04:54:29;10.10;1.00
48328;DHT22;34136;51.022;7.082;2023-04-01T04:57:18;10.10;1.00
48328;DHT22;34136;51.022;7.082;2023-04-01T05:00:11;10.00;1.00
48328;DHT22;34136;51.022;7.082;2023-04-01T05:03:19;10.00;1.00
48328;DHT22;34136;51.022;7.082;2023-04-01T05:06:07;10.00;1.00
48328;DHT22;34136;51.022;7.082;2023-04-01T05:08:54;9.90;1.00
48328;DHT22;34136;51.022;7.082;2023-04-01T05:11:42;9.80;1.00
48328;DHT22;34136;51.022;7.082;2023-04-01T05:14:29;9.80;1.00
48328;DHT22;34136;51.022;7.082;2023-04-01T05:17:23;9.90;1.00
48328;DHT22;34136;51.022;7.082;2023-04-01T05:20:12;10.00;1.00
48328;DHT22;34136;51.022;7.082;2023-04-01T05:23:00;10.00;1.00
48328;DHT22;34136;51.022;7.082;2023-04-01T05:25:49;10.00;1.00
48328;DHT22;34136;51.022;7.082;2023-04-01T05:28:36;9.90;1.00
48328;DHT22;34136;51.022;7.082;2023-04-01T05:31:23;9.90;1.00
48328;DHT22;34136;51.022;7.082;2023-04-01T05:34:11;10.00;1.00
48328;DHT22;34136;51.022;7.082;2023-04-01T05:36:57;9.90;1.00
48328;DHT22;34136;51.022;7.082;2023-04-01T05:39:43;10.00;1.00
48328;DHT22;34136;51.022;7.082;2023-04-01T05:42:29;9.90;1.00
48328;DHT22;34136;51.022;7.082;2023-04-01T05:45:16;9.90;1.00
48328;DHT22;34136;51.022;7.082;2023-04-01T05:48:18;10.00;1.00
48328;DHT22;34136;51.022;7.082;2023-04-01T05:51:04;10.00;1.00
48328;DHT22;34136;51.022;7.082;2023-04-01T05:53:51;9.90;1.00
48328;DHT22;34136;51.022;7.082;2023-04-01T05:56:38;9.80;1.00
48328;DHT22;34136;51.022;7.082;2023-04-01T05:59:25;9.90;1.00
48328;DHT22;34136;51.022;7.082;2023-04-01T06:02:11;9.90;1.00
48328;DHT22;34136;51.022;7.082;2023-04-01T06:05:24;9.80;1.00
48328;DHT22;34136;51.022;7.082;2023-04-01T06:08:13;9.90;1.00
48328;DHT22;34136;51.022;7.082;2023-04-01T06:26:52;9.80;1.00
48328;DHT22;34136;51.022;7.082;2023-04-01T06:29:47;9.80;1.00
48328;DHT22;34136;51.022;7.082;2023-04-01T06:33:00;9.80;1.00
48328;DHT22;34136;51.022;7.082;2023-04-01T06:36:18;9.90;1.00
48328;DHT22;34136;51.022;7.082;2023-04-01T06:48:53;10.00;1.00
48328;DHT22;34136;51.022;7.082;2023-04-01T06:52:21;10.00;1.00
48328;DHT22;34136;51.022;7.082;2023-04-01T06:55:44;10.00;1.00
48328;DHT22;34136;51.022;7.082;2023-04-01T06:59:19;10.10;1.00
48328;DHT22;34136;51.022;7.082;2023-04-01T07:04:58;10.10;1.00
48328;DHT22;34136;51.022;7.082;2023-04-01T07:07:50;10.00;1.00
48328;DHT22;34136;51.022;7.082;2023-04-01T07:17:25;10.10;1.00
48328;DHT22;34136;51.022;7.082;2023-04-01T07:23:20;10.10;1.00
48328;DHT22;34136;51.022;7.082;2023-04-01T07:26:23;10.00;1.00
48328;DHT22;34136;51.022;7.082;2023-04-01T07:29:27;10.00;1.00
48328;DHT22;34136;51.022;7.082;2023-04-01T07:41:51;10.00;1.00
48328;DHT22;34136;51.022;7.082;2023-04-01T07:45:08;10.00;1.00
48328;DHT22;34136;51.022;7.082;2023-04-01T07:51:03;10.00;1.00
48328;DHT22;34136;51.022;7.082;2023-04-01T07:54:02;10.00;1.00
48328;DHT22;34136;51.022;7.082;2023-04-01T07:57:19;10.00;1.00
48328;DHT22;34136;51.022;7.082;2023-04-01T08:06:31;10.10;1.00
48328;DHT22;34136;51.022;7.082;2023-04-01T08:23:17;10.20;1.00
48328;DHT22;34136;51.022;7.082;2023-04-01T08:26:12;10.20;1.00
48328;DHT22;34136;51.022;7.082;2023-04-01T08:29:12;10.30;1.00
48328;DHT22;34136;51.022;7.082;2023-04-01T08:35:18;10.30;1.00
48328;DHT22;34136;51.022;7.082;2023-04-01T08:38:17;10.20;1.00
48328;DHT22;34136;51.022;7.082;2023-04-01T08:53:35;10.30;1.00
48328;DHT22;34136;51.022;7.082;2023-04-01T08:56:53;10.30;1.00
48328;DHT22;34136;51.022;7.082;2023-04-01T08:59:54;10.20;1.00
48328;DHT22;34136;51.022;7.082;2023-04-01T09:24:43;10.20;1.00
48328;DHT22;34136;51.022;7.082;2023-04-01T09:38:04;10.40;1.00
48328;DHT22;34136;51.022;7.082;2023-04-01T09:41:03;10.40;1.00
48328;DHT22;34136;51.022;7.082;2023-04-01T09:44:34;10.40;1.00
48328;DHT22;34136;51.022;7.082;2023-04-01T09:47:46;10.40;1.00
48328;DHT22;34136;51.022;7.082;2023-04-01T10:13:20;10.50;1.00
48328;DHT22;34136;51.022;7.082;2023-04-01T10:19:17;10.50;1.00
48328;DHT22;34136;51.022;7.082;2023-04-01T10:28:28;10.50;1.00
48328;DHT22;34136;51.022;7.082;2023-04-01T10:48:18;10.50;1.00
48328;DHT22;34136;51.022;7.082;2023-04-01T10:51:16;10.50;1.00
48328;DHT22;34136;51.022;7.082;2023-04-01T11:24:21;10.60;1.00
48328;DHT22;34136;51.022;7.082;2023-04-01T11:37:20;10.70;1.00
48328;DHT22;34136;51.022;7.082;2023-04-01T11:44:20;10.80;1.00
48328;DHT22;34136;51.022;7.082;2023-04-01T11:55:22;10.90;1.00
48328;DHT22;34136;51.022;7.082;2023-04-01T12:10:02;11.20;1.00
48328;DHT22;34136;51.022;7.082;2023-04-01T12:19:30;11.20;1.00
48328;DHT22;34136;51.022;7.082;2023-04-01T12:22:29;11.20;1.00
48328;DHT22;34136;51.022;7.082;2023-04-01T12:28:45;11.20;1.00
48328;DHT22;34136;51.022;7.082;2023-04-01T12:31:57;11.30;1.00
48328;DHT22;34136;51.022;7.082;2023-04-01T12:35:13;11.30;1.00
48328;DHT22;34136;51.022;7.082;2023-04-01T12:38:27;11.30;1.00
48328;DHT22;34136;51.022;7.082;2023-04-01T12:54:17;11.20;1.00
48328;DHT22;34136;51.022;7.082;2023-04-01T13:04:38;11.30;1.00
48328;DHT22;34136;51.022;7.082;2023-04-01T13:10:56;11.30;1.00
48328;DHT22;34136;51.022;7.082;2023-04-01T13:17:22;11.10;1.00
48328;DHT22;34136;51.022;7.082;2023-04-01T13:23:36;11.30;1.00
48328;DHT22;34136;51.022;7.082;2023-04-01T13:26:29;11.30;1.00
48328;DHT22;34136;51.022;7.082;2023-04-01T13:32:32;11.30;1.00
48328;DHT22;34136;51.022;7.082;2023-04-01T13:35:48;11.30;1.00
48328;DHT22;34136;51.022;7.082;2023-04-01T13:39:06;11.30;1.00
48328;DHT22;34136;51.022;7.082;2023-04-01T13:42:11;11.30;1.00
48328;DHT22;34136;51.022;7.082;2023-04-01T13:45:15;11.30;1.00
48328;DHT22;34136;51.022;7.082;2023-04-01T13:48:15;11.30;1.00
48328;DHT22;34136;51.022;7.082;2023-04-01T13:57:27;11.20;1.00
48328;DHT22;34136;51.022;7.082;2023-04-01T14:03:50;11.20;1.00
48328;DHT22;34136;51.022;7.082;2023-04-01T14:10:24;11.30;1.00
48328;DHT22;34136;51.022;7.082;2023-04-01T14:19:24;11.50;1.00
48328;DHT22;34136;51.022;7.082;2023-04-01T14:40:28;11.10;1.00
48328;DHT22;34136;51.022;7.082;2023-04-01T14:49:37;11.10;1.00
48328;DHT22;34136;51.022;7.082;2023-04-01T14:52:31;11.20;1.00
48328;DHT22;34136;51.022;7.082;2023-04-01T14:55:32;11.20;1.00
48328;DHT22;34136;51.022;7.082;2023-04-01T14:58:22;11.20;1.00
48328;DHT22;34136;51.022;7.082;2023-04-01T15:10:34;11.00;1.00
48328;DHT22;34136;51.022;7.082;2023-04-01T15:19:40;10.90;1.00
48328;DHT22;34136;51.022;7.082;2023-04-01T15:26:02;10.90;1.00
48328;DHT22;34136;51.022;7.082;2023-04-01T15:41:20;10.90;1.00
48328;DHT22;34136;51.022;7.082;2023-04-01T15:47:30;10.90;1.00
48328;DHT22;34136;51.022;7.082;2023-04-01T15:50:28;10.90;1.00
48328;DHT22;34136;51.022;7.082;2023-04-01T16:02:34;10.90;1.00
